Time;durP1;ratioP1;P1;durP2;ratioP2;P2;SDS_P1;SDS_P2;PMS_P1;PMS_P2;Temp;Humidity;BMP_temperature;BMP_pressure;BME280_temperature;BME280_humidity;BME280_pressure;Samples;Min_cycle;Max_cycle;Signal;HPM_P1;HPM_P2
2023/11/20 00:01:23;;;;;;;13.40;12.70;;;11.30;99.90;;;;;;5036880;28;21528;-80
2023/11/20 00:03:52;;;;;;;13.80;13.20;;;11.20;99.90;;;;;;5039716;28;20688;-80
2023/11/20 00:06:20;;;;;;;13.90;12.90;;;11.30;99.90;;;;;;5036678;28;20462;-77
2023/11/20 00:08:50;;;;;;;14.07;13.27;;;11.20;99.90;;;;;;5040154;28;20476;-78
2023/11/20 00:11:18;;;;;;;15.53;14.33;;;11.20;99.90;;;;;;5039571;28;20499;-80
2023/11/20 00:13:47;;;;;;;14.23;13.37;;;11.20;99.90;;;;;;5039448;28;20486;-77
2023/11/20 00:16:15;;;;;;;13.63;12.93;;;11.20;99.90;;;;;;5041095;28;20845;-78
2023/11/20 00:18:43;;;;;;;13.33;12.57;;;11.20;99.90;;;;;;5039450;28;20451;-79
2023/11/20 00:21:12;;;;;;;14.53;13.70;;;11.20;99.90;;;;;;5041487;28;20833;-78
2023/11/20 00:23:40;;;;;;;13.40;12.60;;;11.10;99.90;;;;;;5036590;28;20486;-79
2023/11/20 00:26:13;;;;;;;13.60;12.80;;;11.10;99.90;;;;;;5036405;28;20456;-79
2023/11/20 00:28:41;;;;;;;13.70;12.60;;;11.20;99.90;;;;;;5039755;28;20484;-78
2023/11/20 00:31:14;;;;;;;13.23;12.53;;;11.20;92.70;;;;;;5038178;28;21113;-78
2023/11/20 00:33:43;;;;;;;14.40;13.37;;;11.10;93.10;;;;;;5040580;28;20454;-78
2023/11/20 00:36:11;;;;;;;13.60;12.80;;;11.10;99.90;;;;;;5040348;28;20450;-79
2023/11/20 00:38:41;;;;;;;15.37;14.30;;;11.10;99.90;;;;;;5035773;28;20458;-79
2023/11/20 00:41:10;;;;;;;12.97;12.17;;;11.10;99.90;;;;;;5037131;28;20468;-81
2023/11/20 00:43:40;;;;;;;13.10;12.30;;;11.10;97.70;;;;;;5037416;28;20445;-81
2023/11/20 00:46:08;;;;;;;14.37;13.03;;;11.00;94.20;;;;;;5036337;28;20551;-77
2023/11/20 00:48:36;;;;;;;14.20;12.90;;;11.00;99.90;;;;;;5038857;28;20472;-81
2023/11/20 00:51:05;;;;;;;14.77;13.67;;;11.10;99.90;;;;;;5043475;28;20477;-81
2023/11/20 00:53:33;;;;;;;14.43;13.27;;;11.10;99.90;;;;;;5038633;28;20902;-78
2023/11/20 00:56:01;;;;;;;13.30;12.50;;;11.10;99.90;;;;;;5038680;28;20463;-79
2023/11/20 00:58:29;;;;;;;14.07;13.00;;;11.10;99.90;;;;;;5038656;28;20500;-79
2023/11/20 01:00:59;;;;;;;13.87;12.73;;;11.10;99.90;;;;;;5036654;28;20498;-79
2023/11/20 01:03:27;;;;;;;13.13;12.40;;;11.10;99.90;;;;;;5037531;28;20445;-79
2023/11/20 01:05:56;;;;;;;14.23;13.00;;;11.10;99.90;;;;;;5038369;28;20540;-80
2023/11/20 01:08:24;;;;;;;13.53;12.83;;;11.00;99.90;;;;;;5036593;28;22481;-79
2023/11/20 01:10:52;;;;;;;12.97;12.27;;;11.10;99.90;;;;;;5037963;28;21165;-80
2023/11/20 01:13:20;;;;;;;14.10;12.90;;;11.10;99.90;;;;;;5040161;28;20460;-79
2023/11/20 01:15:48;;;;;;;13.50;12.50;;;11.10;99.90;;;;;;5034776;28;20449;-81
2023/11/20 01:18:18;;;;;;;13.87;12.57;;;11.20;99.90;;;;;;5036107;28;20980;-78
2023/11/20 01:20:46;;;;;;;13.43;12.80;;;11.20;99.90;;;;;;5038525;28;20476;-79
2023/11/20 01:23:14;;;;;;;14.00;13.03;;;11.20;99.90;;;;;;5039348;28;20458;-78
2023/11/20 01:25:42;;;;;;;13.50;12.50;;;11.20;99.90;;;;;;5040365;28;20818;-78
2023/11/20 01:28:10;;;;;;;13.47;12.80;;;11.20;99.90;;;;;;5036261;28;20505;-78
2023/11/20 01:30:39;;;;;;;12.93;12.33;;;11.20;99.90;;;;;;5040386;28;21068;-79
2023/11/20 01:33:08;;;;;;;13.10;12.40;;;11.20;99.90;;;;;;5037178;28;20868;-80
2023/11/20 01:35:40;;;;;;;13.07;12.57;;;11.20;99.90;;;;;;5038333;28;20460;-79
2023/11/20 01:38:08;;;;;;;12.90;12.30;;;11.30;99.90;;;;;;5041896;28;20893;-78
2023/11/20 01:40:36;;;;;;;14.03;13.03;;;11.30;99.90;;;;;;5038251;28;20484;-78
2023/11/20 01:43:05;;;;;;;13.70;12.80;;;11.30;99.90;;;;;;5036871;28;20840;-79
2023/11/20 01:45:33;;;;;;;13.00;12.30;;;11.30;1.00;;;;;;5035880;28;20468;-79
2023/11/20 01:48:02;;;;;;;13.10;12.40;;;11.30;1.00;;;;;;5039347;28;20444;-78
2023/11/20 01:50:32;;;;;;;13.13;12.57;;;11.20;1.00;;;;;;5034588;28;20494;-79
2023/11/20 01:53:03;;;;;;;13.60;12.97;;;11.30;1.00;;;;;;5039746;28;20460;-79
2023/11/20 01:55:32;;;;;;;13.00;12.30;;;11.30;1.00;;;;;;5035953;28;20441;-81
2023/11/20 01:58:00;;;;;;;13.37;12.47;;;11.30;1.00;;;;;;5036192;28;20990;-78
2023/11/20 02:00:29;;;;;;;12.90;12.37;;;11.20;1.00;;;;;;5037466;28;20483;-79
2023/11/20 02:02:58;;;;;;;13.87;13.20;;;11.30;1.00;;;;;;5035034;28;21024;-79
2023/11/20 02:05:26;;;;;;;13.33;12.70;;;11.30;1.00;;;;;;5034987;28;20445;-77
2023/11/20 02:07:55;;;;;;;13.10;12.60;;;11.30;1.00;;;;;;5035706;28;20467;-79
2023/11/20 02:10:24;;;;;;;14.03;12.90;;;11.30;1.00;;;;;;5034378;28;21053;-78
2023/11/20 02:12:53;;;;;;;14.13;12.90;;;11.30;1.00;;;;;;5038227;28;20444;-78
2023/11/20 02:15:21;;;;;;;13.90;13.03;;;11.30;10.40;;;;;;5037623;28;20468;-78
2023/11/20 02:17:49;;;;;;;13.70;13.00;;;11.30;1.00;;;;;;5039120;28;20449;-78
2023/11/20 02:20:17;;;;;;;13.40;12.70;;;11.30;1.00;;;;;;5038691;28;20469;-78
2023/11/20 02:22:45;;;;;;;13.80;12.67;;;11.30;1.00;;;;;;5038239;28;20458;-78
2023/11/20 02:25:14;;;;;;;12.80;12.30;;;11.30;1.00;;;;;;5035648;28;20455;-76
2023/11/20 02:27:53;;;;;;;13.87;13.03;;;11.30;1.00;;;;;;5034854;28;21043;-80
2023/11/20 02:30:23;;;;;;;13.47;12.80;;;11.30;1.00;;;;;;5037702;28;20487;-80
2023/11/20 02:32:51;;;;;;;13.53;12.63;;;11.40;1.00;;;;;;5039000;28;20449;-79
2023/11/20 02:35:19;;;;;;;12.97;12.37;;;11.30;1.00;;;;;;5038478;28;20466;-80
2023/11/20 02:37:47;;;;;;;13.33;12.53;;;11.30;1.00;;;;;;5035229;28;20460;-79
2023/11/20 02:40:16;;;;;;;13.37;12.87;;;11.40;99.90;;;;;;5035581;28;20468;-79
2023/11/20 02:42:45;;;;;;;12.90;12.40;;;11.30;99.90;;;;;;5037269;28;20540;-80
2023/11/20 02:45:13;;;;;;;13.60;12.63;;;11.40;99.90;;;;;;5036163;28;20467;-78
2023/11/20 02:47:43;;;;;;;13.07;12.37;;;11.40;99.90;;;;;;5033279;28;20543;-80
2023/11/20 02:50:11;;;;;;;13.87;13.07;;;11.30;99.90;;;;;;5037861;28;20484;-78
2023/11/20 02:52:39;;;;;;;13.67;12.50;;;11.40;99.90;;;;;;5035981;28;20835;-78
2023/11/20 02:55:08;;;;;;;13.30;12.40;;;11.40;99.90;;;;;;5036459;28;20957;-78
2023/11/20 02:57:36;;;;;;;13.10;12.50;;;11.40;99.90;;;;;;5035149;28;20456;-79
2023/11/20 03:00:09;;;;;;;13.40;12.70;;;11.40;99.90;;;;;;5034943;28;20550;-82
2023/11/20 03:02:39;;;;;;;12.53;12.00;;;11.40;99.90;;;;;;5035543;28;20973;-80
2023/11/20 03:05:09;;;;;;;12.97;12.37;;;11.40;99.90;;;;;;5036506;28;20468;-78
2023/11/20 03:07:37;;;;;;;13.30;12.53;;;11.50;99.90;;;;;;5035471;28;20460;-78
2023/11/20 03:10:06;;;;;;;14.77;13.53;;;11.50;99.90;;;;;;5045172;28;20476;-79
2023/11/20 03:12:34;;;;;;;12.97;12.50;;;11.40;99.90;;;;;;5038415;28;20538;-79
2023/11/20 03:15:05;;;;;;;13.37;12.77;;;11.40;99.90;;;;;;5036254;28;20455;-79
2023/11/20 03:17:33;;;;;;;12.57;12.10;;;11.40;99.90;;;;;;5035388;28;20973;-79
2023/11/20 03:20:02;;;;;;;13.50;12.77;;;11.40;99.90;;;;;;5035802;28;20484;-80
2023/11/20 03:22:32;;;;;;;13.13;12.43;;;11.40;99.90;;;;;;5034261;28;20453;-78
2023/11/20 03:25:00;;;;;;;12.67;12.17;;;11.40;99.90;;;;;;5036626;28;20883;-81
2023/11/20 03:27:28;;;;;;;13.07;12.67;;;11.50;99.90;;;;;;5034049;28;20464;-79
2023/11/20 03:29:56;;;;;;;13.53;12.77;;;11.40;99.90;;;;;;5033682;28;20484;-80
2023/11/20 03:32:25;;;;;;;12.97;12.37;;;11.40;99.90;;;;;;5042923;28;20452;-78
2023/11/20 03:34:53;;;;;;;13.73;12.63;;;11.40;99.90;;;;;;5040215;28;20451;-78
2023/11/20 03:37:21;;;;;;;14.83;13.67;;;11.40;99.90;;;;;;5040794;28;21244;-80
2023/11/20 03:39:51;;;;;;;12.63;12.13;;;11.40;99.90;;;;;;5041008;28;20572;-79
2023/11/20 03:42:19;;;;;;;13.30;12.60;;;11.40;99.90;;;;;;5037057;28;20456;-79
2023/11/20 03:44:47;;;;;;;12.80;12.30;;;11.40;99.90;;;;;;5036364;28;20455;-79
2023/11/20 03:47:15;;;;;;;13.20;12.50;;;11.40;99.90;;;;;;5035650;28;20460;-79
2023/11/20 03:49:43;;;;;;;14.13;13.30;;;11.40;99.90;;;;;;5037928;28;20479;-79
2023/11/20 03:52:11;;;;;;;13.27;12.60;;;11.40;99.90;;;;;;5039880;28;20444;-79
2023/11/20 03:54:41;;;;;;;13.10;12.60;;;11.50;99.90;;;;;;5041403;28;20453;-79
2023/11/20 03:57:10;;;;;;;14.23;13.33;;;11.50;99.90;;;;;;5040406;28;20460;-79
2023/11/20 03:59:38;;;;;;;13.57;12.77;;;11.50;99.90;;;;;;5039847;28;21183;-81
2023/11/20 04:02:07;;;;;;;14.83;13.77;;;11.50;99.90;;;;;;5037439;28;20546;-80
2023/11/20 04:04:35;;;;;;;14.23;13.07;;;11.50;99.90;;;;;;5039316;28;20458;-81
2023/11/20 04:07:03;;;;;;;14.00;13.30;;;11.50;99.90;;;;;;5038756;28;20481;-80
2023/11/20 04:09:31;;;;;;;14.27;13.10;;;11.40;99.90;;;;;;5039929;28;20476;-80
2023/11/20 04:12:00;;;;;;;14.83;13.80;;;11.40;99.90;;;;;;5039557;28;20576;-83
2023/11/20 04:14:29;;;;;;;14.10;13.47;;;11.40;99.90;;;;;;5036974;28;21684;-80
2023/11/20 04:16:58;;;;;;;13.73;13.03;;;11.40;99.90;;;;;;5033581;28;20445;-80
2023/11/20 04:19:26;;;;;;;14.27;13.37;;;11.40;99.90;;;;;;5039351;28;20810;-78
2023/11/20 04:21:55;;;;;;;13.77;13.00;;;11.40;99.90;;;;;;5040562;28;20543;-78
2023/11/20 04:24:23;;;;;;;14.20;13.50;;;11.30;99.90;;;;;;5038405;28;20447;-78
2023/11/20 04:26:51;;;;;;;14.10;13.20;;;11.30;99.90;;;;;;5039988;28;20464;-78
2023/11/20 04:29:19;;;;;;;13.80;13.20;;;11.30;99.90;;;;;;5038569;28;20460;-77
2023/11/20 04:31:48;;;;;;;13.60;13.00;;;11.30;99.90;;;;;;5036916;28;20484;-78
2023/11/20 04:34:16;;;;;;;14.30;13.50;;;11.30;99.90;;;;;;5041658;28;20444;-78
2023/11/20 04:36:44;;;;;;;15.77;14.33;;;11.30;60.80;;;;;;5040863;28;20555;-79
2023/11/20 04:39:13;;;;;;;13.50;13.10;;;11.30;16.60;;;;;;5039240;28;20448;-79
2023/11/20 04:41:41;;;;;;;14.20;13.53;;;11.30;1.30;;;;;;5036177;28;20445;-78
2023/11/20 04:44:09;;;;;;;14.13;13.33;;;11.30;1.00;;;;;;5038590;28;20460;-80
2023/11/20 04:46:37;;;;;;;14.57;13.47;;;11.40;1.00;;;;;;5037305;28;20452;-79
2023/11/20 04:49:06;;;;;;;14.17;13.47;;;11.40;1.00;;;;;;5036505;28;20578;-79
2023/11/20 04:51:35;;;;;;;14.10;13.33;;;11.40;1.00;;;;;;5037947;28;20578;-78
2023/11/20 04:54:03;;;;;;;13.67;13.03;;;11.40;1.00;;;;;;5039617;28;20481;-79
2023/11/20 04:56:32;;;;;;;13.90;12.90;;;11.30;1.00;;;;;;5038501;28;20514;-79
2023/11/20 04:59:00;;;;;;;13.70;12.80;;;11.30;1.00;;;;;;5039951;28;21015;-77
2023/11/20 05:01:32;;;;;;;14.67;13.73;;;11.30;1.00;;;;;;5034016;28;20494;-77
2023/11/20 05:04:00;;;;;;;13.83;13.03;;;11.20;1.00;;;;;;5036027;28;20985;-82
2023/11/20 05:06:31;;;;;;;13.57;13.07;;;11.30;1.00;;;;;;5036249;28;20478;-78
2023/11/20 05:08:59;;;;;;;13.77;12.77;;;11.30;1.00;;;;;;5038299;28;20460;-81
2023/11/20 05:11:27;;;;;;;13.87;13.20;;;11.40;1.00;;;;;;5042025;28;20976;-79
2023/11/20 05:13:58;;;;;;;13.10;12.50;;;11.40;1.00;;;;;;5039572;28;20464;-80
2023/11/20 05:16:28;;;;;;;14.00;13.20;;;11.50;1.00;;;;;;5036729;28;20510;-81
2023/11/20 05:18:56;;;;;;;14.17;13.30;;;11.50;1.00;;;;;;5036704;28;20526;-77
2023/11/20 05:21:24;;;;;;;14.30;13.60;;;11.50;1.00;;;;;;5038207;28;20468;-80
2023/11/20 05:23:55;;;;;;;13.77;12.97;;;11.50;1.00;;;;;;5040352;28;20460;-79
2023/11/20 05:26:24;;;;;;;14.67;13.70;;;11.40;1.00;;;;;;5037531;28;20997;-81
2023/11/20 05:28:54;;;;;;;14.17;13.37;;;11.40;1.00;;;;;;5038651;28;20543;-78
2023/11/20 05:31:23;;;;;;;12.97;12.40;;;11.40;1.00;;;;;;5036617;28;20908;-79
2023/11/20 05:33:51;;;;;;;14.30;13.03;;;11.40;1.00;;;;;;5039825;28;20751;-79
2023/11/20 05:36:20;;;;;;;13.90;12.80;;;11.40;1.00;;;;;;5038710;28;20533;-79
2023/11/20 05:38:48;;;;;;;12.40;11.90;;;11.30;1.00;;;;;;5049240;28;20464;-78
2023/11/20 05:41:18;;;;;;;13.07;12.47;;;11.30;1.00;;;;;;5041395;28;20468;-78
2023/11/20 05:43:46;;;;;;;13.60;12.80;;;11.30;1.00;;;;;;5037451;28;20452;-80
2023/11/20 05:46:14;;;;;;;14.70;13.23;;;11.30;1.00;;;;;;5037629;28;20460;-80
2023/11/20 05:48:42;;;;;;;13.50;12.60;;;11.30;1.00;;;;;;5039160;28;20453;-80
2023/11/20 05:51:16;;;;;;;13.53;12.97;;;11.30;1.00;;;;;;5039590;28;20504;-80
2023/11/20 05:53:45;;;;;;;11.90;11.50;;;11.30;1.00;;;;;;5035578;28;20905;-80
2023/11/20 05:56:13;;;;;;;12.20;11.77;;;11.30;1.00;;;;;;5034327;28;20449;-79
2023/11/20 05:58:43;;;;;;;15.03;14.00;;;11.30;1.00;;;;;;5033947;28;20460;-78
2023/11/20 06:01:12;;;;;;;13.50;12.90;;;11.30;1.00;;;;;;5042273;28;20473;-77
2023/11/20 06:03:40;;;;;;;14.57;13.67;;;11.30;1.00;;;;;;5037414;28;21250;-80
2023/11/20 06:06:09;;;;;;;13.37;12.47;;;11.30;1.00;;;;;;5028054;28;20456;-78
2023/11/20 06:08:37;;;;;;;12.90;12.10;;;11.40;1.00;;;;;;5037425;28;20487;-78
2023/11/20 06:11:05;;;;;;;13.07;12.23;;;11.30;1.00;;;;;;5036628;28;20500;-79
2023/11/20 06:13:33;;;;;;;12.73;11.90;;;11.30;1.00;;;;;;5038207;28;20486;-79
2023/11/20 06:16:03;;;;;;;12.20;11.60;;;11.30;1.00;;;;;;5037449;28;20549;-78
2023/11/20 06:18:33;;;;;;;13.63;12.63;;;11.30;1.00;;;;;;5038562;28;20440;-78
2023/11/20 06:21:01;;;;;;;12.50;11.80;;;11.30;1.00;;;;;;5037257;28;20471;-79
2023/11/20 06:23:29;;;;;;;13.20;12.20;;;11.30;1.00;;;;;;5032070;28;20554;-80
2023/11/20 06:25:57;;;;;;;32.73;14.23;;;11.30;1.00;;;;;;5033316;28;20884;-78
2023/11/20 06:28:25;;;;;;;12.47;11.67;;;11.30;1.00;;;;;;5031699;28;20828;-79
2023/11/20 06:30:54;;;;;;;13.30;12.30;;;11.20;1.00;;;;;;5033682;28;20567;-80
2023/11/20 06:33:23;;;;;;;12.77;11.97;;;11.20;1.00;;;;;;5031920;28;20462;-78
2023/11/20 06:35:54;;;;;;;12.43;11.57;;;11.10;1.00;;;;;;5036715;28;20852;-80
2023/11/20 06:38:23;;;;;;;12.53;12.03;;;11.20;1.00;;;;;;5037366;28;20449;-78
2023/11/20 06:40:52;;;;;;;12.87;12.37;;;11.20;1.00;;;;;;5036441;28;20476;-78
2023/11/20 06:43:20;;;;;;;13.00;12.40;;;11.30;1.00;;;;;;5036114;28;20476;-78
2023/11/20 06:45:48;;;;;;;12.97;12.30;;;11.30;1.00;;;;;;5036034;28;20457;-79
2023/11/20 06:48:16;;;;;;;12.37;11.77;;;11.30;1.00;;;;;;5038770;28;20455;-78
2023/11/20 06:50:46;;;;;;;12.53;11.53;;;11.30;1.00;;;;;;5033258;28;20471;-79
2023/11/20 06:53:14;;;;;;;12.83;12.03;;;11.30;99.90;;;;;;5031144;28;20484;-79
2023/11/20 06:55:43;;;;;;;13.67;12.73;;;11.20;99.90;;;;;;5036582;28;20947;-80
2023/11/20 06:58:11;;;;;;;13.57;12.47;;;11.30;99.90;;;;;;5034495;28;20534;-79
2023/11/20 07:00:39;;;;;;;12.57;11.73;;;11.20;1.00;;;;;;5037278;28;20496;-77
2023/11/20 07:03:07;;;;;;;12.30;11.60;;;11.20;1.00;;;;;;5035839;28;20452;-80
2023/11/20 07:05:36;;;;;;;11.97;11.37;;;11.20;99.90;;;;;;5033547;28;20919;-77
2023/11/20 07:08:08;;;;;;;11.97;11.43;;;11.30;99.90;;;;;;5035692;28;20462;-78
2023/11/20 07:10:37;;;;;;;12.60;11.87;;;11.20;1.00;;;;;;5034468;28;20477;-78
2023/11/20 07:13:06;;;;;;;12.37;11.73;;;11.20;99.90;;;;;;5035605;28;20480;-78
2023/11/20 07:15:34;;;;;;;12.80;12.00;;;11.30;1.00;;;;;;5050471;28;20556;-79
2023/11/20 07:18:02;;;;;;;11.90;11.30;;;11.30;99.90;;;;;;5036553;28;20545;-79
2023/11/20 07:20:30;;;;;;;12.67;11.70;;;11.30;1.00;;;;;;5033020;28;20492;-79
2023/11/20 07:23:00;;;;;;;13.00;11.97;;;11.30;99.90;;;;;;5037362;28;20455;-79
2023/11/20 07:25:33;;;;;;;13.70;12.87;;;11.30;99.90;;;;;;5036249;28;21015;-77
2023/11/20 07:28:02;;;;;;;13.40;12.37;;;11.40;99.90;;;;;;5035930;28;20459;-78
2023/11/20 07:30:32;;;;;;;12.60;11.87;;;11.40;1.00;;;;;;5032493;28;20572;-80
2023/11/20 07:33:00;;;;;;;12.00;11.50;;;11.40;99.90;;;;;;5038346;28;20488;-81
2023/11/20 07:35:29;;;;;;;12.33;11.53;;;11.40;99.90;;;;;;5037709;28;20447;-80
2023/11/20 07:38:03;;;;;;;12.83;12.10;;;11.40;99.90;;;;;;5033079;28;20462;-78
2023/11/20 07:40:33;;;;;;;13.70;12.80;;;11.40;1.00;;;;;;5036042;28;21099;-80
2023/11/20 07:43:01;;;;;;;12.70;12.00;;;11.40;1.00;;;;;;5035325;28;20453;-79
2023/11/20 07:45:29;;;;;;;12.40;11.70;;;11.40;1.00;;;;;;5034346;28;20441;-81
2023/11/20 07:47:58;;;;;;;12.50;12.00;;;11.40;1.00;;;;;;5034802;28;20445;-80
2023/11/20 07:50:26;;;;;;;12.70;12.20;;;11.40;1.00;;;;;;5033824;28;20477;-80
2023/11/20 07:52:54;;;;;;;12.60;11.87;;;11.40;1.00;;;;;;5035722;28;20476;-79
2023/11/20 07:55:22;;;;;;;13.57;12.43;;;11.40;1.00;;;;;;5036175;28;20449;-78
2023/11/20 07:57:52;;;;;;;13.07;11.97;;;11.40;1.00;;;;;;5033766;28;20452;-80
2023/11/20 08:00:20;;;;;;;17.13;12.27;;;11.30;1.00;;;;;;5035537;28;20472;-81
2023/11/20 08:02:49;;;;;;;12.40;11.50;;;11.30;1.00;;;;;;5033420;28;20468;-78
2023/11/20 08:05:19;;;;;;;12.33;11.53;;;11.30;1.00;;;;;;5035640;28;20511;-79
2023/11/20 08:07:48;;;;;;;12.20;11.53;;;11.40;1.00;;;;;;5032176;28;20448;-79
2023/11/20 08:10:18;;;;;;;13.20;12.43;;;11.40;1.00;;;;;;5038304;28;20594;-80
2023/11/20 08:12:47;;;;;;;13.63;12.63;;;11.40;1.00;;;;;;5032081;28;20484;-79
2023/11/20 08:15:17;;;;;;;13.90;13.00;;;11.30;1.00;;;;;;5034316;28;20466;-79
2023/11/20 08:17:45;;;;;;;13.10;12.40;;;11.40;43.70;;;;;;5038978;28;20463;-79
2023/11/20 08:20:16;;;;;;;12.70;12.02;;;11.40;33.50;;;;;;5038881;28;20437;-76
2023/11/20 08:22:45;;;;;;;13.30;12.30;;;11.40;95.50;;;;;;5035961;28;20222;-79
2023/11/20 08:25:15;;;;;;;13.57;12.47;;;11.50;99.90;;;;;;5038882;28;20474;-80
2023/11/20 08:27:43;;;;;;;13.07;12.47;;;11.50;75.70;;;;;;5037820;28;20468;-79
2023/11/20 08:30:12;;;;;;;12.70;12.20;;;11.50;99.90;;;;;;5040222;28;20527;-77
2023/11/20 08:32:42;;;;;;;13.33;12.70;;;11.40;99.90;;;;;;5038128;28;20950;-79
2023/11/20 08:35:10;;;;;;;13.47;12.57;;;11.40;99.90;;;;;;5037848;28;21366;-80
2023/11/20 08:37:39;;;;;;;13.80;12.83;;;11.40;99.90;;;;;;5030219;28;20452;-78
2023/11/20 08:40:09;;;;;;;13.30;12.50;;;11.40;99.90;;;;;;5034965;28;20467;-78
2023/11/20 08:42:38;;;;;;;13.63;12.90;;;11.40;99.90;;;;;;5036101;28;20457;-78
2023/11/20 08:45:07;;;;;;;13.43;12.43;;;11.40;99.90;;;;;;5035483;28;20544;-78
2023/11/20 08:47:35;;;;;;;13.10;12.40;;;11.30;99.90;;;;;;5040234;28;20449;-76
2023/11/20 08:50:07;;;;;;;13.23;12.73;;;11.30;99.90;;;;;;5039246;28;20476;-77
2023/11/20 08:52:37;;;;;;;12.90;12.40;;;11.30;99.90;;;;;;5034528;28;20577;-78
2023/11/20 08:55:06;;;;;;;17.23;15.87;;;11.20;99.90;;;;;;5038287;28;20460;-78
2023/11/20 08:57:36;;;;;;;13.40;12.57;;;11.20;99.90;;;;;;5033750;28;20461;-77
2023/11/20 09:00:05;;;;;;;13.40;12.70;;;11.20;99.90;;;;;;5038341;28;20480;-78
2023/11/20 09:02:33;;;;;;;12.77;12.00;;;11.30;99.90;;;;;;5037933;28;20463;-78
2023/11/20 09:05:01;;;;;;;12.93;12.33;;;11.30;99.90;;;;;;5038501;28;20457;-78
2023/11/20 09:07:31;;;;;;;13.30;12.60;;;11.50;99.90;;;;;;5036882;28;20491;-79
2023/11/20 09:09:59;;;;;;;12.97;12.47;;;11.50;99.90;;;;;;5035544;28;20994;-78
2023/11/20 09:12:27;;;;;;;13.63;12.70;;;11.50;99.90;;;;;;5039077;28;20520;-78
2023/11/20 09:14:55;;;;;;;13.00;12.40;;;11.60;75.90;;;;;;5039020;28;20547;-78
2023/11/20 09:17:23;;;;;;;12.60;12.10;;;11.60;87.70;;;;;;5042096;28;20467;-78
2023/11/20 09:19:52;;;;;;;13.40;12.70;;;11.60;54.40;;;;;;5037895;28;20468;-79
2023/11/20 09:22:20;;;;;;;12.70;12.10;;;11.60;62.20;;;;;;5035164;28;21925;-78
2023/11/20 09:24:50;;;;;;;13.70;12.40;;;11.60;27.90;;;;;;5037361;28;20551;-79
2023/11/20 09:27:31;;;;;;;13.50;12.57;;;11.60;11.30;;;;;;5035511;28;20870;-77
2023/11/20 09:29:59;;;;;;;13.90;13.02;;;11.60;7.20;;;;;;5034912;28;20789;-78
2023/11/20 09:32:28;;;;;;;13.70;12.60;;;11.70;1.00;;;;;;5035827;28;20212;-78
2023/11/20 09:34:56;;;;;;;12.90;12.23;;;12.10;1.00;;;;;;5041512;28;20720;-79
2023/11/20 09:37:25;;;;;;;14.87;14.00;;;12.40;1.00;;;;;;5023595;28;20471;-82
2023/11/20 09:39:54;;;;;;;13.73;12.80;;;12.80;1.00;;;;;;5037897;28;20486;-81
2023/11/20 09:42:25;;;;;;;14.33;13.67;;;13.10;1.00;;;;;;5034806;28;20464;-82
2023/11/20 09:44:56;;;;;;;13.60;12.63;;;13.30;1.00;;;;;;5041147;28;20437;-80
2023/11/20 09:47:25;;;;;;;13.03;12.63;;;13.20;1.00;;;;;;5037477;28;20461;-80
2023/11/20 09:49:56;;;;;;;12.80;12.10;;;13.40;1.00;;;;;;5038318;28;20461;-80
2023/11/20 09:52:25;;;;;;;12.50;11.80;;;13.10;99.90;;;;;;5040853;28;20491;-80
2023/11/20 09:54:57;;;;;;;12.70;11.90;;;12.90;1.00;;;;;;5033617;28;20483;-81
2023/11/20 09:57:27;;;;;;;13.17;12.47;;;12.80;1.00;;;;;;5032249;28;20522;-81
2023/11/20 09:59:55;;;;;;;13.27;12.63;;;13.20;99.90;;;;;;5039949;28;20498;-82
2023/11/20 10:02:28;;;;;;;14.07;13.17;;;14.30;99.90;;;;;;5040317;28;20464;-81
2023/11/20 10:04:58;;;;;;;13.30;12.70;;;15.80;99.90;;;;;;5040467;28;20476;-80
2023/11/20 10:07:32;;;;;;;13.20;12.40;;;16.40;99.90;;;;;;5041101;28;20464;-80
2023/11/20 10:10:02;;;;;;;12.50;11.80;;;16.50;99.90;;;;;;5042889;28;20466;-80
2023/11/20 10:12:33;;;;;;;12.27;11.40;;;16.80;99.90;;;;;;5034643;28;20457;-81
2023/11/20 10:15:04;;;;;;;12.63;11.70;;;17.10;99.90;;;;;;5041592;28;20500;-80
2023/11/20 10:17:34;;;;;;;11.80;10.93;;;18.40;99.90;;;;;;5058574;28;20543;-82
2023/11/20 10:20:09;;;;;;;9.17;8.77;;;20.30;99.90;;;;;;5041342;28;20507;-81
2023/11/20 10:22:37;;;;;;;10.53;10.03;;;20.80;99.90;;;;;;5043043;28;20468;-79
2023/11/20 10:25:08;;;;;;;9.33;9.03;;;21.80;99.90;;;;;;5043524;28;20457;-81
2023/11/20 10:27:37;;;;;;;10.30;9.43;;;21.00;99.90;;;;;;5035958;28;20462;-81
2023/11/20 10:30:09;;;;;;;9.80;9.00;;;19.50;99.90;;;;;;5042143;28;21033;-82
2023/11/20 10:32:41;;;;;;;9.97;9.30;;;19.00;99.90;;;;;;5037818;28;20457;-82
2023/11/20 10:35:14;;;;;;;9.63;9.23;;;19.50;99.90;;;;;;5040245;28;20596;-81
2023/11/20 10:37:57;;;;;;;9.40;8.90;;;19.40;99.90;;;;;;5036862;28;20452;-81
2023/11/20 10:40:27;;;;;;;11.13;10.43;;;17.70;99.90;;;;;;5037636;28;20479;-81
2023/11/20 10:42:57;;;;;;;9.63;9.13;;;17.60;99.90;;;;;;5035212;28;20456;-82
2023/11/20 10:45:25;;;;;;;11.07;10.47;;;16.60;99.90;;;;;;5036562;28;20967;-82
2023/11/20 10:47:53;;;;;;;9.90;9.50;;;16.00;99.90;;;;;;5042413;28;20464;-80
2023/11/20 10:50:22;;;;;;;10.00;9.50;;;15.90;99.90;;;;;;5044836;28;20488;-81
2023/11/20 10:52:54;;;;;;;10.40;10.00;;;15.80;99.90;;;;;;5041970;28;20447;-81
2023/11/20 10:55:31;;;;;;;10.20;9.63;;;15.70;99.90;;;;;;5040338;28;20479;-81
2023/11/20 10:58:03;;;;;;;10.90;10.20;;;15.70;99.90;;;;;;5038005;28;20460;-82
2023/11/20 11:00:34;;;;;;;9.70;9.40;;;15.40;99.90;;;;;;5037134;28;20503;-80
2023/11/20 11:03:02;;;;;;;10.10;9.70;;;15.00;99.90;;;;;;5033554;28;20490;-80
2023/11/20 11:05:46;;;;;;;11.07;10.47;;;14.80;99.90;;;;;;5036139;28;20452;-81
2023/11/20 11:08:16;;;;;;;9.97;9.27;;;14.30;99.90;;;;;;5036260;28;20484;-76
2023/11/20 11:10:46;;;;;;;11.13;10.63;;;14.00;99.90;;;;;;5038122;28;20507;-77
2023/11/20 11:13:18;;;;;;;10.23;10.03;;;13.70;99.90;;;;;;5034740;28;20456;-78
2023/11/20 11:15:48;;;;;;;11.30;10.60;;;13.60;99.90;;;;;;5038118;28;20477;-78
2023/11/20 11:18:17;;;;;;;10.97;10.37;;;13.50;99.90;;;;;;5040690;28;20957;-77
2023/11/20 11:20:53;;;;;;;11.03;10.73;;;13.50;99.90;;;;;;5037582;28;20518;-79
2023/11/20 11:23:29;;;;;;;11.00;10.50;;;13.40;99.90;;;;;;5036511;28;20492;-77
2023/11/20 11:26:10;;;;;;;11.50;11.00;;;13.20;99.90;;;;;;5039589;28;20451;-76
2023/11/20 11:28:42;;;;;;;12.63;12.03;;;13.00;1.00;;;;;;5034409;28;20464;-79
2023/11/20 11:31:12;;;;;;;13.47;12.80;;;13.10;1.00;;;;;;5035420;28;20500;-80
2023/11/20 11:34:01;;;;;;;11.10;10.70;;;13.00;1.00;;;;;;5036085;28;20460;-78
2023/11/20 11:36:41;;;;;;;11.37;10.77;;;12.90;1.00;;;;;;5035321;28;20456;-79
2023/11/20 11:39:18;;;;;;;11.03;10.73;;;13.00;1.00;;;;;;5034532;28;20495;-77
2023/11/20 11:41:56;;;;;;;11.50;11.30;;;13.20;1.00;;;;;;5035515;28;20451;-79
2023/11/20 11:44:38;;;;;;;12.20;11.70;;;13.30;1.00;;;;;;5033073;28;20480;-78
2023/11/20 11:47:10;;;;;;;12.10;11.77;;;13.50;1.00;;;;;;5037135;28;20449;-80
2023/11/20 11:49:40;;;;;;;13.10;12.50;;;13.70;1.00;;;;;;5037988;28;20477;-79
2023/11/20 11:52:08;;;;;;;12.60;12.30;;;13.80;1.00;;;;;;5034823;28;20456;-80
2023/11/20 11:54:37;;;;;;;12.33;11.73;;;13.80;1.00;;;;;;5040057;28;21014;-79
2023/11/20 11:57:16;;;;;;;12.33;11.93;;;13.90;1.00;;;;;;5042916;28;20475;-78
2023/11/20 11:59:44;;;;;;;14.07;13.40;;;14.00;1.00;;;;;;5037527;28;20571;-79
2023/11/20 12:02:18;;;;;;;12.30;11.80;;;14.20;1.00;;;;;;5046152;28;20462;-80
2023/11/20 12:05:13;;;;;;;12.97;12.50;;;14.30;1.00;;;;;;5041447;28;20456;-78
2023/11/20 12:07:47;;;;;;;13.50;13.10;;;14.20;1.00;;;;;;5016362;28;20591;-79
2023/11/20 12:10:16;;;;;;;12.70;12.00;;;14.20;1.00;;;;;;5041094;28;20471;-78
2023/11/20 12:13:11;;;;;;;12.60;12.10;;;14.10;1.00;;;;;;5045220;28;20455;-77
2023/11/20 12:15:42;;;;;;;13.07;12.27;;;14.00;1.00;;;;;;5035943;28;20880;-78
2023/11/20 12:18:16;;;;;;;12.37;11.97;;;14.00;1.00;;;;;;5043555;28;20464;-78
2023/11/20 12:21:03;;;;;;;13.10;12.67;;;13.80;1.00;;;;;;5043897;28;21090;-78
2023/11/20 12:23:33;;;;;;;13.57;12.87;;;13.80;1.00;;;;;;5042015;28;20447;-78
2023/11/20 12:26:04;;;;;;;13.30;12.90;;;13.90;1.00;;;;;;5039266;28;20438;-78
2023/11/20 12:28:35;;;;;;;12.70;12.30;;;13.90;1.00;;;;;;5040565;28;20454;-78
2023/11/20 12:31:05;;;;;;;12.80;12.50;;;14.00;1.00;;;;;;5035659;28;20488;-81
2023/11/20 12:33:34;;;;;;;12.33;11.93;;;14.10;99.90;;;;;;5043417;28;20437;-79
2023/11/20 12:36:02;;;;;;;12.60;12.07;;;14.30;99.90;;;;;;5040290;28;20473;-80
2023/11/20 12:38:32;;;;;;;12.40;12.00;;;14.30;99.90;;;;;;5039093;28;20456;-79
2023/11/20 12:41:03;;;;;;;12.37;11.87;;;14.40;99.90;;;;;;5042414;28;20483;-77
2023/11/20 12:43:35;;;;;;;12.73;12.33;;;14.20;99.90;;;;;;5043450;28;20493;-79